Time;durP1;ratioP1;P1;durP2;ratioP2;P2;SDS_P1;SDS_P2;PMS_P1;PMS_P2;Temp;Humidity;BMP_temperature;BMP_pressure;BME280_temperature;BME280_humidity;BME280_pressure;Samples;Min_cycle;Max_cycle;Signal;HPM_P1;HPM_P2
2024/01/05 00:01:51;;;;;;;0.10;0.10;;;;;;;-145.06;100.00;54832.16;10454799;28;20029;-69
2024/01/05 00:06:51;;;;;;;0.00;0.00;;;;;;;-145.06;100.00;54820.00;10454345;28;20037;-70
2024/01/05 00:11:52;;;;;;;0.00;0.00;;;;;;;-145.06;100.00;54799.75;10455242;28;20033;-70
2024/01/05 00:16:52;;;;;;;0.10;0.10;;;;;;;-145.06;100.00;54781.53;10452725;28;20058;-70
2024/01/05 00:21:52;;;;;;;0.03;0.03;;;;;;;-145.06;100.00;54815.97;10456151;28;20393;-69
2024/01/05 00:26:53;;;;;;;0.00;0.00;;;;;;;-145.06;100.00;54801.78;10454160;28;20564;-70
2024/01/05 00:31:53;;;;;;;0.00;0.00;;;;;;;-145.06;100.00;54813.94;10452714;28;20025;-69
2024/01/05 00:36:53;;;;;;;0.10;0.10;;;;;;;-145.06;100.00;54828.13;10453282;28;20023;-70
2024/01/05 00:41:54;;;;;;;0.00;0.00;;;;;;;-145.06;100.00;54811.91;10452200;28;20016;-69
2024/01/05 00:46:54;;;;;;;0.05;0.05;;;;;;;-145.06;100.00;54815.97;10452315;28;20526;-70
2024/01/05 00:51:54;;;;;;;0.00;0.00;;;;;;;-145.06;100.00;54856.47;10453159;28;20025;-70
2024/01/05 00:56:55;;;;;;;0.00;0.00;;;;;;;-145.06;100.00;54820.00;10451690;28;20017;-70
2024/01/05 01:01:55;;;;;;;0.10;0.10;;;;;;;-145.06;100.00;54805.84;10451584;28;20087;-70
2024/01/05 01:06:55;;;;;;;0.00;0.00;;;;;;;-145.06;100.00;54807.88;10452536;28;20678;-70
2024/01/05 01:11:56;;;;;;;0.10;0.10;;;;;;;-145.06;100.00;54820.00;10451747;28;20103;-70
2024/01/05 01:16:56;;;;;;;0.10;0.10;;;;;;;-145.06;100.00;54826.09;10451030;28;20074;-69
2024/01/05 01:21:56;;;;;;;0.00;0.00;;;;;;;-145.06;100.00;54844.31;10450963;28;20035;-69
2024/01/05 01:26:56;;;;;;;0.00;0.00;;;;;;;-145.06;100.00;54807.88;10453135;28;20033;-70
2024/01/05 01:31:57;;;;;;;0.10;0.10;;;;;;;-145.06;100.00;54793.69;10450137;28;20025;-70
2024/01/05 01:36:57;;;;;;;0.00;0.00;;;;;;;-145.06;100.00;54838.25;10449953;28;20474;-69
2024/01/05 01:41:58;;;;;;;0.10;0.10;;;;;;;-145.06;100.00;54803.81;10432184;28;20017;-69
2024/01/05 01:46:59;;;;;;;0.00;0.00;;;;;;;-145.06;100.00;54801.78;10431777;28;20314;-69
2024/01/05 01:51:59;;;;;;;0.00;0.00;;;;;;;-145.06;100.00;54832.16;10449809;28;20503;-69
2024/01/05 01:57:01;;;;;;;0.00;0.00;;;;;;;-145.06;100.00;54811.91;10448917;28;20017;-69
2024/01/05 02:02:02;;;;;;;0.00;0.00;;;;;;;-145.06;100.00;54813.94;10450417;28;20035;-69
2024/01/05 02:07:03;;;;;;;0.00;0.00;;;;;;;-145.06;100.00;54813.94;10449133;28;20037;-70
2024/01/05 02:12:04;;;;;;;0.10;0.10;;;;;;;-145.06;100.00;54801.78;10452374;28;20024;-69
2024/01/05 02:17:31;;;;;;;0.10;0.10;;;;;;;-145.06;100.00;54832.16;10448958;28;20013;-69
2024/01/05 02:22:34;;;;;;;0.00;0.00;;;;;;;-145.06;100.00;54791.66;10453195;28;20482;-70
2024/01/05 02:27:34;;;;;;;0.00;0.00;;;;;;;-145.06;100.00;54828.13;10439426;28;20033;-69
2024/01/05 02:32:35;;;;;;;0.00;0.00;;;;;;;-145.06;100.00;54820.00;10459054;28;20024;-69
2024/01/05 02:37:35;;;;;;;0.03;0.03;;;;;;;-145.06;100.00;54779.50;10458418;28;20074;-70
2024/01/05 02:42:35;;;;;;;0.10;0.10;;;;;;;-145.06;100.00;54779.50;10456408;28;20024;-70
2024/01/05 02:47:35;;;;;;;0.00;0.00;;;;;;;-145.06;100.00;54777.47;10459105;28;20017;-70
2024/01/05 02:52:36;;;;;;;0.00;0.00;;;;;;;-145.06;100.00;54803.81;10456324;28;20013;-70
2024/01/05 02:57:37;;;;;;;0.00;0.00;;;;;;;-145.06;100.00;54791.66;10455985;28;20031;-70
2024/01/05 03:02:37;;;;;;;0.00;0.00;;;;;;;-145.06;100.00;54795.72;10460224;28;20020;-70
2024/01/05 03:07:40;;;;;;;0.10;0.10;;;;;;;-145.06;100.00;54813.94;10458776;28;20517;-70
2024/01/05 03:12:41;;;;;;;0.00;0.00;;;;;;;-145.06;100.00;54797.72;10455628;28;20032;-70
2024/01/05 03:17:41;;;;;;;0.00;0.00;;;;;;;-145.06;100.00;54820.00;10456288;28;20028;-69
2024/01/05 03:22:42;;;;;;;0.10;0.10;;;;;;;-145.06;100.00;54779.50;10455431;28;20020;-69
2024/01/05 03:27:42;;;;;;;0.10;0.10;;;;;;;-145.06;100.00;54795.72;10455028;28;20036;-70
2024/01/05 03:32:42;;;;;;;0.00;0.00;;;;;;;-145.06;100.00;54795.72;10454640;28;20029;-70
2024/01/05 03:37:42;;;;;;;0.00;0.00;;;;;;;-145.06;100.00;54803.81;10460786;28;20036;-69
2024/01/05 03:42:43;;;;;;;0.10;0.10;;;;;;;-145.06;100.00;54771.41;10438554;28;20345;-70
2024/01/05 03:47:43;;;;;;;0.08;0.08;;;;;;;-145.06;100.00;54783.56;10454207;28;20025;-70
2024/01/05 03:52:43;;;;;;;0.00;0.00;;;;;;;-145.06;100.00;54799.75;10454277;28;20017;-69
2024/01/05 03:57:44;;;;;;;0.10;0.10;;;;;;;-145.06;100.00;54815.97;10455848;28;20023;-69
2024/01/05 04:02:44;;;;;;;0.00;0.00;;;;;;;-145.06;100.00;54795.72;10453494;28;20063;-69
2024/01/05 04:07:44;;;;;;;0.00;0.00;;;;;;;-145.06;100.00;54811.91;10453201;28;20016;-69
2024/01/05 04:12:45;;;;;;;0.10;0.10;;;;;;;-145.06;100.00;54809.88;10455600;28;20466;-70
2024/01/05 04:17:45;;;;;;;0.00;0.00;;;;;;;-145.06;100.00;54803.81;10435268;28;20040;-70
2024/01/05 04:22:45;;;;;;;0.00;0.00;;;;;;;-145.06;100.00;54818.00;10454912;28;20017;-70
2024/01/05 04:27:46;;;;;;;0.10;0.10;;;;;;;-145.06;100.00;54807.88;10455605;28;20094;-70
2024/01/05 04:32:46;;;;;;;0.10;0.10;;;;;;;-145.06;100.00;54795.72;10455560;28;20317;-70
2024/01/05 04:37:47;;;;;;;0.00;0.00;;;;;;;-145.06;100.00;54848.38;10454578;28;20052;-70
2024/01/05 04:42:47;;;;;;;0.00;0.00;;;;;;;-145.06;100.00;54842.31;10450905;28;20024;-69
2024/01/05 04:47:47;;;;;;;0.00;0.00;;;;;;;-145.06;100.00;54805.84;10452743;28;20048;-69
2024/01/05 04:52:47;;;;;;;0.00;0.00;;;;;;;-145.06;100.00;54844.31;10451200;28;20389;-70
2024/01/05 04:57:48;;;;;;;0.00;0.00;;;;;;;-145.06;100.00;54795.72;10433333;28;20606;-69
2024/01/05 05:02:48;;;;;;;0.00;0.00;;;;;;;-145.06;100.00;54842.31;10452307;28;20020;-69
2024/01/05 05:07:48;;;;;;;0.00;0.00;;;;;;;-145.06;100.00;54828.13;10450854;28;20028;-69
2024/01/05 05:12:49;;;;;;;0.00;0.00;;;;;;;-145.06;100.00;54801.78;10455522;28;20094;-69
2024/01/05 05:17:51;;;;;;;0.00;0.00;;;;;;;-145.06;100.00;54820.00;10432388;28;20444;-69
2024/01/05 05:22:51;;;;;;;0.00;0.00;;;;;;;-145.06;100.00;54828.13;10451108;28;20020;-70
2024/01/05 05:27:51;;;;;;;0.00;0.00;;;;;;;-145.06;100.00;54828.13;10450151;28;20021;-69
2024/01/05 05:32:52;;;;;;;0.00;0.00;;;;;;;-145.06;100.00;54820.00;10451787;28;20020;-69
2024/01/05 05:37:52;;;;;;;0.10;0.10;;;;;;;-145.06;100.00;54832.16;10450040;28;20036;-69
2024/01/05 05:42:52;;;;;;;0.00;0.00;;;;;;;-145.06;100.00;54832.16;10449525;28;20021;-74
2024/01/05 05:47:53;;;;;;;0.10;0.10;;;;;;;-145.06;100.00;54856.47;10453925;28;20024;-73
2024/01/05 05:52:53;;;;;;;0.00;0.00;;;;;;;-145.06;100.00;54860.53;10449463;28;20024;-73
2024/01/05 05:57:54;;;;;;;0.10;0.10;;;;;;;-145.06;100.00;54868.63;10432554;28;20778;-72
2024/01/05 06:02:54;;;;;;;0.00;0.00;;;;;;;-145.06;100.00;54824.06;10450965;28;20031;-72
2024/01/05 06:07:54;;;;;;;0.00;0.00;;;;;;;-145.06;100.00;54840.28;10431123;28;20268;-72
2024/01/05 06:12:55;;;;;;;0.05;0.05;;;;;;;-145.06;100.00;54852.44;10449045;28;20017;-72
2024/01/05 06:17:55;;;;;;;0.00;0.00;;;;;;;-145.06;100.00;54860.53;10448740;28;20017;-71
2024/01/05 06:22:55;;;;;;;0.03;0.03;;;;;;;-145.06;100.00;54840.28;10448724;28;20024;-71
2024/01/05 06:27:56;;;;;;;0.00;0.00;;;;;;;-145.06;100.00;54856.47;10448499;28;20270;-71
2024/01/05 06:32:56;;;;;;;0.10;0.10;;;;;;;-145.06;100.00;54846.34;10449941;28;20032;-72
2024/01/05 06:37:56;;;;;;;0.00;0.00;;;;;;;-145.06;100.00;54860.53;10449870;28;20029;-72
2024/01/05 06:42:57;;;;;;;0.10;0.10;;;;;;;-145.06;100.00;54844.31;10449291;28;20486;-72
2024/01/05 06:47:57;;;;;;;0.00;0.00;;;;;;;-145.06;100.00;54858.50;10446963;28;20037;-72
2024/01/05 06:52:58;;;;;;;0.00;0.00;;;;;;;-145.06;100.00;54838.25;10430523;28;20107;-71
2024/01/05 06:57:58;;;;;;;0.00;0.00;;;;;;;-145.06;100.00;54872.69;10451952;28;20350;-72
2024/01/05 07:02:58;;;;;;;0.00;0.00;;;;;;;-145.06;100.00;54876.72;10450961;28;20020;-71
2024/01/05 07:07:58;;;;;;;0.00;0.00;;;;;;;-145.06;100.00;54840.28;10447729;28;20735;-71
2024/01/05 07:12:59;;;;;;;0.10;0.10;;;;;;;-145.06;100.00;54836.22;10454725;28;20020;-71
2024/01/05 07:18:00;;;;;;;0.00;0.00;;;;;;;-145.06;100.00;54846.34;10455613;28;20187;-71
2024/01/05 07:23:00;;;;;;;0.00;0.00;;;;;;;-145.06;100.00;54830.16;10437290;28;20390;-72
2024/01/05 07:28:00;;;;;;;0.00;0.00;;;;;;;-145.06;100.00;54838.25;10455120;28;20466;-71
2024/01/05 07:33:01;;;;;;;0.00;0.00;;;;;;;-145.06;100.00;54854.44;10454675;28;20402;-71
2024/01/05 07:38:01;;;;;;;0.00;0.00;;;;;;;-145.06;100.00;54842.31;10454725;28;20465;-71
2024/01/05 07:43:02;;;;;;;0.00;0.00;;;;;;;-145.06;100.00;54848.38;10454725;28;20336;-71
2024/01/05 07:48:03;;;;;;;0.00;0.00;;;;;;;-145.06;100.00;54850.41;10458153;28;20033;-72
2024/01/05 07:53:03;;;;;;;0.10;0.10;;;;;;;-145.06;100.00;54848.38;10454969;28;20032;-72
2024/01/05 07:58:04;;;;;;;0.08;0.08;;;;;;;-145.06;100.00;54874.72;10461609;28;20103;-72
2024/01/05 08:03:05;;;;;;;0.10;0.10;;;;;;;-145.06;100.00;54846.34;10464925;28;20029;-72
2024/01/05 08:08:06;;;;;;;0.00;0.00;;;;;;;-145.06;100.00;54852.44;10435800;28;20107;-71
2024/01/05 08:13:06;;;;;;;0.00;0.00;;;;;;;-145.06;100.00;54832.16;10453264;28;20530;-72
2024/01/05 08:18:08;;;;;;;0.00;0.00;;;;;;;-145.06;100.00;54828.13;10460257;28;20029;-71
2024/01/05 08:23:08;;;;;;;0.00;0.00;;;;;;;-145.06;100.00;54848.38;10460453;28;20040;-70
2024/01/05 08:28:08;;;;;;;0.00;0.00;;;;;;;-145.06;100.00;54832.16;10457047;28;20051;-70
2024/01/05 08:33:09;;;;;;;0.00;0.00;;;;;;;-145.06;100.00;54840.28;10453991;28;20429;-70
2024/01/05 08:38:09;;;;;;;0.00;0.00;;;;;;;-145.06;100.00;54844.31;10453374;28;20263;-73
2024/01/05 08:43:10;;;;;;;0.10;0.10;;;;;;;-145.06;100.00;54830.16;10452101;28;20018;-73
2024/01/05 08:48:11;;;;;;;0.00;0.00;;;;;;;-145.06;100.00;54854.44;10455345;28;20263;-72
2024/01/05 08:53:11;;;;;;;0.00;0.00;;;;;;;-145.06;100.00;54805.84;10451915;28;20044;-72
2024/01/05 08:58:12;;;;;;;0.00;0.00;;;;;;;-145.06;100.00;54811.91;10433927;28;20074;-71
2024/01/05 09:03:12;;;;;;;0.00;0.00;;;;;;;-145.06;100.00;54844.31;10452362;28;20032;-75
2024/01/05 09:08:12;;;;;;;0.00;0.00;;;;;;;-145.06;100.00;54836.22;10454242;28;20020;-71
2024/01/05 09:13:12;;;;;;;0.00;0.00;;;;;;;-145.06;100.00;54807.88;10450919;28;20263;-72
2024/01/05 09:18:13;;;;;;;0.00;0.00;;;;;;;-145.06;100.00;54815.97;10451416;28;20432;-71
2024/01/05 09:23:13;;;;;;;0.00;0.00;;;;;;;-145.06;100.00;54828.13;10450551;28;20445;-72
2024/01/05 09:28:13;;;;;;;0.00;0.00;;;;;;;-145.06;100.00;54826.09;10454211;28;20274;-71
2024/01/05 09:33:15;;;;;;;0.00;0.00;;;;;;;-145.06;100.00;54830.16;10452474;28;20027;-72
2024/01/05 09:38:15;;;;;;;0.00;0.00;;;;;;;-145.06;100.00;54811.91;10453293;28;20021;-71
2024/01/05 09:43:17;;;;;;;0.00;0.00;;;;;;;-145.06;100.00;54864.59;10432129;28;20025;-71
2024/01/05 09:48:22;;;;;;;0.00;0.00;;;;;;;-145.06;100.00;54795.72;10453475;28;20025;-72
2024/01/05 09:53:23;;;;;;;0.00;0.00;;;;;;;-145.06;100.00;54820.00;10450498;28;20540;-71
2024/01/05 09:58:25;;;;;;;0.00;0.00;;;;;;;-145.06;100.00;54818.00;10434210;28;20071;-71
2024/01/05 10:03:27;;;;;;;0.00;0.00;;;;;;;-145.06;100.00;54815.97;10453611;28;20024;-72
2024/01/05 10:08:27;;;;;;;0.03;0.03;;;;;;;-145.06;100.00;54783.56;10451076;28;20450;-72
2024/01/05 10:13:27;;;;;;;0.00;0.00;;;;;;;-145.06;100.00;54813.94;10450148;28;20017;-73
2024/01/05 10:18:29;;;;;;;0.00;0.00;;;;;;;-145.06;100.00;54832.16;10451260;28;20067;-74
2024/01/05 10:23:30;;;;;;;0.00;0.00;;;;;;;-145.06;100.00;54783.56;10432992;28;20283;-71
2024/01/05 10:28:31;;;;;;;0.10;0.10;;;;;;;-145.06;100.00;54801.78;10456666;28;20111;-72
2024/01/05 10:33:31;;;;;;;0.10;0.10;;;;;;;-145.06;100.00;54836.22;10450156;28;20421;-73
2024/01/05 10:38:32;;;;;;;0.00;0.00;;;;;;;-145.06;100.00;54840.28;10448610;28;20078;-71
2024/01/05 10:43:33;;;;;;;0.10;0.10;;;;;;;-145.06;100.00;54840.28;10433881;28;20028;-73
2024/01/05 10:48:35;;;;;;;0.00;0.00;;;;;;;-145.06;100.00;54828.13;10460973;28;20052;-73
2024/01/05 10:53:35;;;;;;;0.00;0.00;;;;;;;-145.06;100.00;54832.16;10457854;28;20025;-72
2024/01/05 10:58:36;;;;;;;0.00;0.00;;;;;;;-145.06;100.00;54836.22;10459260;28;20416;-72
2024/01/05 11:03:43;;;;;;;0.00;0.00;;;;;;;-145.06;100.00;54860.53;10458780;28;20294;-73
2024/01/05 11:08:52;;;;;;;0.00;0.00;;;;;;;-145.06;100.00;54813.94;10462781;28;20017;-72
2024/01/05 11:14:07;;;;;;;0.00;0.00;;;;;;;-145.06;100.00;54830.16;10458492;28;20029;-72
2024/01/05 11:19:45;;;;;;;0.00;0.00;;;;;;;-145.06;100.00;54834.19;10454603;28;20036;-72
2024/01/05 11:24:47;;;;;;;0.00;0.00;;;;;;;-145.06;100.00;54842.31;10439013;28;20470;-71
2024/01/05 11:29:51;;;;;;;0.00;0.00;;;;;;;-145.06;100.00;54826.09;10456002;28;20024;-72
2024/01/05 11:34:51;;;;;;;0.10;0.10;;;;;;;-145.06;100.00;54844.31;10453375;28;20021;-72
2024/01/05 11:39:53;;;;;;;0.00;0.00;;;;;;;-145.06;100.00;54862.56;10454831;28;20021;-72
2024/01/05 11:44:55;;;;;;;0.10;0.10;;;;;;;-145.06;100.00;54842.31;10455782;28;20021;-72
2024/01/05 11:49:55;;;;;;;0.10;0.10;;;;;;;-145.06;100.00;54824.06;10454290;28;20017;-72
2024/01/05 11:55:10;;;;;;;0.00;0.00;;;;;;;-145.06;100.00;54824.06;10451487;28;20017;-71
2024/01/05 12:00:11;;;;;;;0.00;0.00;;;;;;;-145.06;100.00;54856.47;10453143;28;20497;-71
2024/01/05 12:05:16;;;;;;;0.00;0.00;;;;;;;-145.06;100.00;54840.28;10436899;28;20580;-71
2024/01/05 12:10:22;;;;;;;0.00;0.00;;;;;;;-145.06;100.00;54842.31;10459822;28;20025;-72
2024/01/05 12:15:24;;;;;;;0.03;0.03;;;;;;;-145.06;100.00;54815.97;10450984;28;20025;-72
2024/01/05 12:20:25;;;;;;;0.00;0.00;;;;;;;-145.06;100.00;54838.25;10457659;28;20027;-72
2024/01/05 12:25:25;;;;;;;0.00;0.00;;;;;;;-145.06;100.00;54826.09;10452757;28;20360;-72
2024/01/05 12:30:26;;;;;;;0.00;0.00;;;;;;;-145.06;100.00;54856.47;10455761;28;20111;-70
2024/01/05 12:35:27;;;;;;;0.00;0.00;;;;;;;-145.06;100.00;54836.22;10452219;28;20107;-72
2024/01/05 12:40:28;;;;;;;0.10;0.10;;;;;;;-145.06;100.00;54836.22;10454734;28;20074;-72
2024/01/05 12:45:28;;;;;;;0.00;0.00;;;;;;;-145.06;100.00;54842.31;10434141;28;20025;-72
2024/01/05 12:50:30;;;;;;;0.00;0.00;;;;;;;-145.06;100.00;54828.13;10452001;28;20032;-72
2024/01/05 12:55:32;;;;;;;0.00;0.00;;;;;;;-145.06;100.00;54838.25;10451651;28;20283;-72
2024/01/05 13:00:43;;;;;;;0.00;0.00;;;;;;;-145.06;100.00;54848.38;10451696;28;20450;-72
2024/01/05 13:05:43;;;;;;;0.10;0.10;;;;;;;-145.06;100.00;54850.41;10452318;28;20056;-70
2024/01/05 13:10:44;;;;;;;0.00;0.00;;;;;;;-145.06;100.00;54848.38;10451067;28;20060;-71
2024/01/05 13:15:45;;;;;;;0.00;0.00;;;;;;;-145.06;100.00;54864.59;10450894;28;20386;-72
2024/01/05 13:20:45;;;;;;;0.00;0.00;;;;;;;-145.06;100.00;54852.44;10451703;28;20021;-72
2024/01/05 13:25:46;;;;;;;0.00;0.00;;;;;;;-145.06;100.00;54860.53;10449789;28;20047;-72
2024/01/05 13:30:46;;;;;;;0.00;0.00;;;;;;;-145.06;100.00;54830.16;10450878;28;20028;-72
2024/01/05 13:35:48;;;;;;;0.08;0.08;;;;;;;-145.06;100.00;54842.31;10454822;28;20412;-72
2024/01/05 13:40:48;;;;;;;0.00;0.00;;;;;;;-145.06;100.00;54832.16;10450218;28;20251;-73
2024/01/05 13:45:49;;;;;;;0.00;0.00;;;;;;;-145.06;100.00;54826.09;10449523;28;20071;-73
2024/01/05 13:50:49;;;;;;;0.00;0.00;;;;;;;-145.06;100.00;54840.28;10452242;28;20263;-72
2024/01/05 13:55:49;;;;;;;0.00;0.00;;;;;;;-145.06;100.00;54864.59;10451844;28;20359;-71
2024/01/05 14:00:50;;;;;;;0.00;0.00;;;;;;;-145.06;100.00;54826.09;10451475;28;20406;-72
2024/01/05 14:05:51;;;;;;;0.10;0.10;;;;;;;-145.06;100.00;54850.41;10432478;28;20082;-72
2024/01/05 14:10:51;;;;;;;0.00;0.00;;;;;;;-145.06;100.00;54864.59;10435250;28;20021;-72
2024/01/05 14:15:51;;;;;;;0.10;0.10;;;;;;;-145.06;100.00;54834.19;10451016;28;20017;-72
2024/01/05 14:20:51;;;;;;;0.00;0.00;;;;;;;-145.06;100.00;54858.50;10439244;28;20111;-73
2024/01/05 14:25:52;;;;;;;0.00;0.00;;;;;;;-145.06;100.00;54862.56;10461768;28;20021;-74
2024/01/05 14:30:52;;;;;;;0.10;0.10;;;;;;;-145.06;100.00;54822.03;10460434;28;20078;-70
2024/01/05 14:35:53;;;;;;;0.00;0.00;;;;;;;-145.06;100.00;54852.44;10458942;28;20467;-71
2024/01/05 14:40:53;;;;;;;0.00;0.00;;;;;;;-145.06;100.00;54848.38;10456847;28;20017;-73
2024/01/05 14:45:53;;;;;;;0.00;0.00;;;;;;;-145.06;100.00;54862.56;10458170;28;20389;-71
2024/01/05 14:50:54;;;;;;;0.00;0.00;;;;;;;-145.06;100.00;54842.31;10458764;28;20025;-72
2024/01/05 14:55:54;;;;;;;0.00;0.00;;;;;;;-145.06;100.00;54856.47;10460608;28;20078;-72
2024/01/05 15:00:55;;;;;;;0.00;0.00;;;;;;;-145.06;100.00;54868.63;10439604;28;20279;-73
2024/01/05 15:05:56;;;;;;;0.00;0.00;;;;;;;-145.06;100.00;54878.75;10459104;28;20028;-73
2024/01/05 15:10:57;;;;;;;0.00;0.00;;;;;;;-145.06;100.00;54864.59;10455871;28;20017;-72
2024/01/05 15:15:58;;;;;;;0.03;0.03;;;;;;;-145.06;100.00;54864.59;10437315;28;20027;-72
2024/01/05 15:20:59;;;;;;;0.08;0.08;;;;;;;-145.06;100.00;54894.97;10461664;28;20103;-72
2024/01/05 15:26:00;;;;;;;0.00;0.00;;;;;;;-145.06;100.00;54872.69;10457207;28;20024;-72
2024/01/05 15:31:00;;;;;;;0.10;0.10;;;;;;;-145.06;100.00;54876.72;10458619;28;20028;-72
2024/01/05 15:36:01;;;;;;;0.10;0.10;;;;;;;-145.06;100.00;54919.28;10445936;28;20020;-72
2024/01/05 15:41:01;;;;;;;0.00;0.00;;;;;;;-145.06;100.00;54868.63;10456786;28;20025;-72
2024/01/05 15:46:02;;;;;;;0.00;0.00;;;;;;;-145.06;100.00;54878.75;10456673;28;20042;-72
2024/01/05 15:51:02;;;;;;;0.00;0.00;;;;;;;-145.06;100.00;54882.81;10455033;28;20029;-73
2024/01/05 15:56:02;;;;;;;0.00;0.00;;;;;;;-145.06;100.00;54870.66;10454399;28;20055;-72
2024/01/05 16:01:03;;;;;;;0.10;0.10;;;;;;;-145.06;100.00;54909.16;10458408;28;20021;-72
2024/01/05 16:06:08;;;;;;;0.00;0.00;;;;;;;-145.06;100.00;54921.28;10454370;28;20036;-73
2024/01/05 16:11:09;;;;;;;0.00;0.00;;;;;;;-145.06;100.00;54917.25;10453353;28;20098;-71
2024/01/05 16:16:12;;;;;;;0.00;0.00;;;;;;;-145.06;100.00;54888.88;10456712;28;20025;-72
2024/01/05 16:21:19;;;;;;;0.00;0.00;;;;;;;-145.06;100.00;54884.84;10453240;28;20047;-71
2024/01/05 16:26:20;;;;;;;0.00;0.00;;;;;;;-145.06;100.00;54878.75;10452462;28;21498;-71
2024/01/05 16:31:21;;;;;;;0.00;0.00;;;;;;;-145.06;100.00;54884.84;10450887;28;20348;-72
2024/01/05 16:36:21;;;;;;;0.10;0.10;;;;;;;-145.06;100.00;54876.72;10454625;28;20021;-72
2024/01/05 16:41:23;;;;;;;0.05;0.05;;;;;;;-145.06;100.00;54888.88;10452096;28;20277;-72
2024/01/05 16:46:24;;;;;;;0.10;0.10;;;;;;;-145.06;100.00;54880.78;10452958;28;20016;-72
2024/01/05 16:51:24;;;;;;;0.10;0.10;;;;;;;-145.06;100.00;54874.72;10456159;28;20025;-71
2024/01/05 16:56:24;;;;;;;0.10;0.10;;;;;;;-145.06;100.00;54903.06;10451705;28;20017;-72
2024/01/05 17:01:25;;;;;;;0.00;0.00;;;;;;;-145.06;100.00;54860.53;10434104;28;20028;-71
2024/01/05 17:06:25;;;;;;;0.10;0.10;;;;;;;-145.06;100.00;54886.88;10432534;28;20102;-72
2024/01/05 17:11:28;;;;;;;0.00;0.00;;;;;;;-145.06;100.00;54884.84;10452723;28;20420;-72
2024/01/05 17:16:28;;;;;;;0.10;0.10;;;;;;;-145.06;100.00;54832.16;10450513;28;20040;-72
2024/01/05 17:21:29;;;;;;;0.05;0.05;;;;;;;-145.06;100.00;54876.72;10451381;28;20405;-72
2024/01/05 17:26:37;;;;;;;0.00;0.00;;;;;;;-145.06;100.00;54884.84;10450250;28;20390;-72
2024/01/05 17:31:38;;;;;;;0.10;0.10;;;;;;;-145.06;100.00;54868.63;10454615;28;20017;-71
2024/01/05 17:36:39;;;;;;;0.10;0.10;;;;;;;-145.06;100.00;54901.03;10433681;28;20013;-72
2024/01/05 17:41:39;;;;;;;0.00;0.00;;;;;;;-145.06;100.00;54897.00;10450045;28;20052;-72
2024/01/05 17:46:40;;;;;;;0.00;0.00;;;;;;;-145.06;100.00;54856.47;10432600;28;20029;-73
2024/01/05 17:51:40;;;;;;;0.10;0.10;;;;;;;-145.06;100.00;54905.09;10450208;28;20055;-73
2024/01/05 17:56:40;;;;;;;0.00;0.00;;;;;;;-145.06;100.00;54876.72;10448771;28;20008;-72
2024/01/05 18:01:45;;;;;;;0.10;0.10;;;;;;;-145.06;100.00;54897.00;10434369;28;20772;-71
2024/01/05 18:06:45;;;;;;;0.00;0.00;;;;;;;-145.06;100.00;54897.00;10449975;28;20025;-73
2024/01/05 18:11:46;;;;;;;0.00;0.00;;;;;;;-145.06;100.00;54876.72;10455062;28;20398;-71
2024/01/05 18:16:46;;;;;;;0.00;0.00;;;;;;;-145.06;100.00;54911.16;10452131;28;20009;-72
2024/01/05 18:21:47;;;;;;;0.00;0.00;;;;;;;-145.06;100.00;54888.88;10449910;28;20370;-71
2024/01/05 18:26:47;;;;;;;0.05;0.05;;;;;;;-145.06;100.00;54899.00;10455179;28;20555;-72
2024/01/05 18:31:47;;;;;;;0.00;0.00;;;;;;;-145.06;100.00;54864.59;10454337;28;20048;-72
2024/01/05 18:36:48;;;;;;;0.10;0.10;;;;;;;-145.06;100.00;54933.44;10454658;28;20069;-71
2024/01/05 18:41:48;;;;;;;0.00;0.00;;;;;;;-145.06;100.00;54892.94;10448641;28;20040;-71
2024/01/05 18:46:49;;;;;;;0.00;0.00;;;;;;;-145.06;100.00;54909.16;10449795;28;20063;-71
2024/01/05 18:51:49;;;;;;;0.05;0.05;;;;;;;-145.06;100.00;54905.09;10431563;28;20021;-73
2024/01/05 18:56:49;;;;;;;0.00;0.00;;;;;;;-145.06;100.00;54905.09;10450242;28;20028;-72
2024/01/05 19:01:50;;;;;;;0.00;0.00;;;;;;;-145.06;100.00;54909.16;10451294;28;20051;-71
2024/01/05 19:06:50;;;;;;;0.00;0.00;;;;;;;-145.06;100.00;54884.84;10449146;28;20079;-71
2024/01/05 19:11:51;;;;;;;0.10;0.10;;;;;;;-145.06;100.00;54882.81;10454174;28;20457;-71
2024/01/05 19:16:51;;;;;;;0.03;0.03;;;;;;;-145.06;100.00;54864.59;10444429;28;20382;-72
2024/01/05 19:21:52;;;;;;;0.00;0.00;;;;;;;-145.06;100.00;54884.84;10457906;28;20060;-72
2024/01/05 19:26:52;;;;;;;0.00;0.00;;;;;;;-145.06;100.00;54870.66;10462452;28;20025;-71
2024/01/05 19:31:53;;;;;;;0.00;0.00;;;;;;;-145.06;100.00;54858.50;10462939;28;20744;-72
2024/01/05 19:36:53;;;;;;;0.00;0.00;;;;;;;-145.06;100.00;54878.75;10460303;28;20263;-72
2024/01/05 19:41:53;;;;;;;0.00;0.00;;;;;;;-145.06;100.00;54860.53;10460068;28;20350;-71
2024/01/05 19:46:53;;;;;;;0.00;0.00;;;;;;;-145.06;100.00;54892.94;10457182;28;20306;-71
2024/01/05 19:51:54;;;;;;;0.00;0.00;;;;;;;-145.06;100.00;54909.16;10461777;28;20267;-71
2024/01/05 19:56:56;;;;;;;0.03;0.03;;;;;;;-145.06;100.00;54864.59;10440081;28;20025;-71
2024/01/05 20:01:57;;;;;;;0.03;0.03;;;;;;;-145.06;100.00;54911.16;10461901;28;20020;-71
2024/01/05 20:06:57;;;;;;;0.00;0.00;;;;;;;-145.06;100.00;54909.16;10438583;28;20032;-72
2024/01/05 20:11:57;;;;;;;0.00;0.00;;;;;;;-145.06;100.00;54913.19;10456825;28;20025;-71
2024/01/05 20:16:58;;;;;;;0.10;0.10;;;;;;;-145.06;100.00;54890.91;10461076;28;20025;-71
2024/01/05 20:22:01;;;;;;;0.10;0.10;;;;;;;-145.06;100.00;54903.06;10458509;28;20021;-73
2024/01/05 20:27:02;;;;;;;0.00;0.00;;;;;;;-145.06;100.00;54886.88;10455874;28;20102;-71
2024/01/05 20:32:03;;;;;;;0.10;0.10;;;;;;;-145.06;100.00;54907.13;10439170;28;20024;-72
2024/01/05 20:37:03;;;;;;;0.08;0.08;;;;;;;-145.06;100.00;54884.84;10436860;28;20382;-71
2024/01/05 20:42:04;;;;;;;0.05;0.05;;;;;;;-145.06;100.00;54899.00;10459826;28;20055;-72
2024/01/05 20:47:04;;;;;;;0.00;0.00;;;;;;;-145.06;100.00;54907.13;10445702;28;20032;-73
2024/01/05 20:52:05;;;;;;;0.05;0.05;;;;;;;-145.06;100.00;54878.75;10454072;28;20044;-72
2024/01/05 20:57:06;;;;;;;0.00;0.00;;;;;;;-145.06;100.00;54888.88;10452236;28;20271;-72
2024/01/05 21:02:06;;;;;;;0.10;0.10;;;;;;;-145.06;100.00;54899.00;10438454;28;20074;-72
2024/01/05 21:07:09;;;;;;;0.00;0.00;;;;;;;-145.06;100.00;54909.16;10456539;28;20033;-71
2024/01/05 21:12:09;;;;;;;0.10;0.10;;;;;;;-145.06;100.00;54864.59;10456272;28;20280;-72
2024/01/05 21:17:10;;;;;;;0.00;0.00;;;;;;;-145.06;100.00;54888.88;10455878;28;20516;-72
2024/01/05 21:22:11;;;;;;;0.00;0.00;;;;;;;-145.06;100.00;54909.16;10452182;28;20025;-73
2024/01/05 21:27:12;;;;;;;0.10;0.10;;;;;;;-145.06;100.00;54888.88;10453295;28;20116;-71
2024/01/05 21:32:13;;;;;;;0.10;0.10;;;;;;;-145.06;100.00;54876.72;10452326;28;20398;-73
2024/01/05 21:37:14;;;;;;;0.00;0.00;;;;;;;-145.06;100.00;54897.00;10454960;28;20017;-72
2024/01/05 21:42:14;;;;;;;0.00;0.00;;;;;;;-145.06;100.00;54872.69;10453939;28;20029;-71
2024/01/05 21:47:14;;;;;;;0.08;0.08;;;;;;;-145.06;100.00;54874.72;10459272;28;20045;-71
2024/01/05 21:52:15;;;;;;;0.00;0.00;;;;;;;-145.06;100.00;54915.22;10452674;28;20382;-71
2024/01/05 21:57:15;;;;;;;0.00;0.00;;;;;;;-145.06;100.00;54888.88;10455129;28;20583;-72
2024/01/05 22:02:15;;;;;;;0.10;0.10;;;;;;;-145.06;100.00;54860.53;10454403;28;20052;-72
2024/01/05 22:07:15;;;;;;;0.00;0.00;;;;;;;-145.06;100.00;54901.03;10452190;28;20040;-70
2024/01/05 22:12:16;;;;;;;0.00;0.00;;;;;;;-145.06;100.00;54872.69;10453980;28;20028;-74
2024/01/05 22:17:16;;;;;;;0.10;0.10;;;;;;;-145.06;100.00;54905.09;10452871;28;20663;-74
2024/01/05 22:22:16;;;;;;;0.00;0.00;;;;;;;-145.06;100.00;54923.31;10455947;28;20060;-74
2024/01/05 22:27:17;;;;;;;0.00;0.00;;;;;;;-145.06;100.00;54888.88;10453783;28;20021;-70
2024/01/05 22:32:17;;;;;;;0.10;0.10;;;;;;;-145.06;100.00;54929.41;10432962;28;20029;-73